createdAt,value
2022-08-20T00:01:22.734Z,2.35
2022-08-20T00:03:53.431Z,2.03
2022-08-20T00:06:25.015Z,2.17
2022-08-20T00:08:54.838Z,1.60
2022-08-20T00:11:27.344Z,2.13
2022-08-20T00:13:59.964Z,2.47
2022-08-20T00:16:33.201Z,2.03
2022-08-20T00:19:01.991Z,1.90
2022-08-20T00:21:31.924Z,2.50
2022-08-20T00:24:01.963Z,2.30
2022-08-20T00:26:31.018Z,1.98
2022-08-20T00:28:59.438Z,2.17
2022-08-20T00:31:27.843Z,2.28
2022-08-20T00:33:56.760Z,2.25
2022-08-20T00:36:32.360Z,2.72
2022-08-20T00:39:04.591Z,2.28
2022-08-20T00:41:33.103Z,2.00
2022-08-20T00:44:12.521Z,2.35
2022-08-20T00:46:42.415Z,2.60
2022-08-20T00:49:28.262Z,2.45
2022-08-20T00:52:01.010Z,2.45
2022-08-20T00:54:35.351Z,2.10
2022-08-20T00:57:09.281Z,2.47
2022-08-20T00:59:41.628Z,2.72
2022-08-20T01:02:14.029Z,2.45
2022-08-20T01:04:46.573Z,2.50
2022-08-20T01:07:15.018Z,2.17
2022-08-20T01:09:57.972Z,2.63
2022-08-20T01:12:30.095Z,2.47
2022-08-20T01:15:01.546Z,2.33
2022-08-20T01:17:34.763Z,2.47
2022-08-20T01:20:08.274Z,2.50
2022-08-20T01:23:02.339Z,2.38
2022-08-20T01:25:42.641Z,2.42
2022-08-20T01:28:12.312Z,1.98
2022-08-20T01:30:40.888Z,2.20
2022-08-20T01:33:09.322Z,2.35
2022-08-20T01:35:41.186Z,2.17
2022-08-20T01:38:10.630Z,1.92
2022-08-20T01:41:15.737Z,1.90
2022-08-20T01:43:46.775Z,1.80
2022-08-20T01:46:18.564Z,2.30
2022-08-20T01:48:49.306Z,2.08
2022-08-20T01:51:21.416Z,1.95
2022-08-20T01:53:53.405Z,1.83
2022-08-20T01:56:26.274Z,1.92
2022-08-20T01:58:59.120Z,2.08
2022-08-20T02:01:33.923Z,1.92
2022-08-20T02:04:17.388Z,1.80
2022-08-20T02:06:56.823Z,1.77
2022-08-20T02:09:29.467Z,1.67
2022-08-20T02:12:04.479Z,1.98
2022-08-20T02:14:34.276Z,1.90
2022-08-20T02:17:03.260Z,2.22
2022-08-20T02:19:38.828Z,1.88
2022-08-20T02:22:16.544Z,2.00
2022-08-20T02:24:45.925Z,2.15
2022-08-20T02:27:16.085Z,1.83
2022-08-20T02:29:45.124Z,2.17
2022-08-20T02:32:32.037Z,1.88
2022-08-20T02:35:06.128Z,2.08
2022-08-20T02:37:34.824Z,2.05
2022-08-20T02:40:03.683Z,2.08
2022-08-20T02:42:33.855Z,1.98
2022-08-20T02:45:02.700Z,2.00
2022-08-20T02:47:31.901Z,1.70
2022-08-20T02:50:00.396Z,1.60
2022-08-20T02:52:29.031Z,1.98
2022-08-20T02:54:57.575Z,1.88
2022-08-20T02:57:25.966Z,1.88
2022-08-20T02:59:56.716Z,1.92
2022-08-20T03:02:26.583Z,2.45
2022-08-20T03:04:54.933Z,2.10
2022-08-20T03:07:23.378Z,2.53
2022-08-20T03:09:51.828Z,1.98
2022-08-20T03:12:20.506Z,2.63
2022-08-20T03:14:49.044Z,2.47
2022-08-20T03:17:19.819Z,2.78
2022-08-20T03:19:48.492Z,2.70
2022-08-20T03:22:18.548Z,2.80
2022-08-20T03:24:47.263Z,2.83
2022-08-20T03:27:15.826Z,2.63
2022-08-20T03:29:44.266Z,3.00
2022-08-20T03:32:12.765Z,2.95
2022-08-20T03:34:42.965Z,2.92
2022-08-20T03:37:12.853Z,2.63
2022-08-20T03:39:42.111Z,2.88
2022-08-20T03:42:10.765Z,2.92
2022-08-20T03:44:40.126Z,3.25
2022-08-20T03:47:09.698Z,3.10
2022-08-20T03:49:38.190Z,3.33
2022-08-20T03:52:08.564Z,2.70
2022-08-20T03:54:36.852Z,2.90
2022-08-20T03:57:12.577Z,2.85
2022-08-20T03:59:41.723Z,2.53
2022-08-20T04:02:11.449Z,3.05
2022-08-20T04:04:41.208Z,2.80
2022-08-20T04:07:13.493Z,3.00
2022-08-20T04:09:44.028Z,2.97
2022-08-20T04:12:13.857Z,2.75
2022-08-20T04:14:42.377Z,2.60
2022-08-20T04:17:14.323Z,3.20
2022-08-20T04:19:44.594Z,2.90
2022-08-20T04:22:15.411Z,2.78
2022-08-20T04:24:44.955Z,3.08
2022-08-20T04:27:15.355Z,2.95
2022-08-20T04:29:44.889Z,2.95
2022-08-20T04:32:14.181Z,3.08
2022-08-20T04:34:47.299Z,2.90
2022-08-20T04:37:22.238Z,3.10
2022-08-20T04:40:10.706Z,2.72
2022-08-20T04:42:40.733Z,2.97
2022-08-20T04:45:14.304Z,3.25
2022-08-20T04:47:43.167Z,2.95
2022-08-20T04:50:13.659Z,3.28
2022-08-20T04:52:49.767Z,3.05
2022-08-20T04:55:20.146Z,3.38
2022-08-20T04:57:48.416Z,3.00
2022-08-20T05:00:18.789Z,3.10
2022-08-20T05:02:47.212Z,2.75
2022-08-20T05:05:15.921Z,3.35
2022-08-20T05:07:47.118Z,2.88
2022-08-20T05:10:19.821Z,3.25
2022-08-20T05:12:56.478Z,3.05
2022-08-20T05:15:26.662Z,2.90
2022-08-20T05:18:00.909Z,3.35
2022-08-20T05:20:31.686Z,2.80
2022-08-20T05:23:01.222Z,3.33
2022-08-20T05:25:32.734Z,2.95
2022-08-20T05:28:09.663Z,3.67
2022-08-20T05:30:39.911Z,3.05
2022-08-20T05:33:10.101Z,3.45
2022-08-20T05:35:41.158Z,3.40
2022-08-20T05:38:16.736Z,2.63
2022-08-20T05:40:47.456Z,3.55
2022-08-20T05:43:16.200Z,3.33
2022-08-20T05:45:47.493Z,3.92
2022-08-20T05:48:18.578Z,3.40
2022-08-20T05:50:50.686Z,3.47
2022-08-20T05:53:20.270Z,3.47
2022-08-20T05:55:51.104Z,3.08
2022-08-20T05:58:22.818Z,3.60
2022-08-20T06:00:52.551Z,3.47
2022-08-20T06:03:38.810Z,3.35
2022-08-20T06:06:17.880Z,3.38
2022-08-20T06:08:57.206Z,3.53
2022-08-20T06:11:27.719Z,3.03
2022-08-20T06:13:56.470Z,3.92
2022-08-20T06:16:24.994Z,3.60
2022-08-20T06:18:58.359Z,3.33
2022-08-20T06:21:27.037Z,3.50
2022-08-20T06:23:59.497Z,3.45
2022-08-20T06:26:34.871Z,3.05
2022-08-20T06:29:06.950Z,3.50
2022-08-20T06:31:40.161Z,3.85
2022-08-20T06:34:09.096Z,3.28
2022-08-20T06:36:37.574Z,3.22
2022-08-20T06:39:06.049Z,3.35
2022-08-20T06:41:36.995Z,3.42
2022-08-20T06:44:07.781Z,3.65
2022-08-20T06:46:37.673Z,3.20
2022-08-20T06:49:06.989Z,3.38
2022-08-20T06:51:37.677Z,2.75
2022-08-20T06:54:08.769Z,3.50
2022-08-20T06:56:40.910Z,3.17
2022-08-20T06:59:09.660Z,3.67
2022-08-20T07:01:40.703Z,4.05
2022-08-20T07:04:09.226Z,3.70
2022-08-20T07:06:37.706Z,3.75
2022-08-20T07:09:06.157Z,3.53
2022-08-20T07:11:36.587Z,3.72
2022-08-20T07:14:08.760Z,4.43
2022-08-20T07:16:37.383Z,3.88
2022-08-20T07:19:05.846Z,3.17
2022-08-20T07:21:34.395Z,4.18
2022-08-20T07:24:04.137Z,3.30
2022-08-20T07:26:33.103Z,3.88
2022-08-20T07:29:01.543Z,3.88
2022-08-20T07:31:49.249Z,4.03
2022-08-20T07:34:19.735Z,3.70
2022-08-20T07:36:50.860Z,3.65
2022-08-20T07:39:21.487Z,3.45
2022-08-20T07:42:03.538Z,4.05
2022-08-20T07:44:32.344Z,4.50
2022-08-20T07:47:05.139Z,3.60
2022-08-20T07:49:33.709Z,3.45
2022-08-20T07:52:02.111Z,3.97
2022-08-20T07:54:32.286Z,4.10
2022-08-20T07:57:03.048Z,3.97
2022-08-20T07:59:32.351Z,4.47
2022-08-20T08:02:04.569Z,3.70
2022-08-20T08:04:33.241Z,4.10
2022-08-20T08:07:02.908Z,3.58
2022-08-20T08:09:32.141Z,4.13
2022-08-20T08:12:05.031Z,3.75
2022-08-20T08:14:36.421Z,4.15
2022-08-20T08:17:07.714Z,3.80
2022-08-20T08:19:40.977Z,3.40
2022-08-20T08:22:13.379Z,3.58
2022-08-20T08:24:56.741Z,3.53
2022-08-20T08:27:28.177Z,3.70
2022-08-20T08:29:58.199Z,3.47
2022-08-20T08:32:29.107Z,4.03
2022-08-20T08:34:57.762Z,3.67
2022-08-20T08:37:30.482Z,3.40
2022-08-20T08:40:01.687Z,3.60
2022-08-20T08:42:44.464Z,3.58
2022-08-20T08:45:18.023Z,3.78
2022-08-20T08:47:48.260Z,3.70
2022-08-20T08:50:50.125Z,3.60
2022-08-20T08:53:24.488Z,4.15
2022-08-20T08:55:55.667Z,3.55
2022-08-20T08:58:25.175Z,3.58
2022-08-20T09:00:57.445Z,3.70
2022-08-20T09:03:31.205Z,3.53
2022-08-20T09:06:02.243Z,3.55
2022-08-20T09:08:35.580Z,3.25
2022-08-20T09:11:07.240Z,3.47
2022-08-20T09:13:37.033Z,3.10
2022-08-20T09:16:07.073Z,2.75
2022-08-20T09:18:37.262Z,3.25
2022-08-20T09:21:06.631Z,3.17
2022-08-20T09:23:35.942Z,3.40
2022-08-20T09:26:04.960Z,3.00
2022-08-20T09:28:40.872Z,3.55
2022-08-20T09:31:16.838Z,3.13
2022-08-20T09:33:48.719Z,3.63
2022-08-20T09:36:29.060Z,3.63
2022-08-20T09:39:03.020Z,3.72
2022-08-20T09:41:33.783Z,3.30
2022-08-20T09:44:03.634Z,3.20
2022-08-20T09:46:44.552Z,3.40
2022-08-20T09:49:14.662Z,3.50
2022-08-20T09:51:43.392Z,3.20
2022-08-20T09:54:12.585Z,3.22
2022-08-20T09:56:41.271Z,3.15
2022-08-20T09:59:10.404Z,3.15
2022-08-20T10:01:39.166Z,3.08
2022-08-20T10:04:08.566Z,3.05
2022-08-20T10:06:43.117Z,3.58
2022-08-20T10:09:12.956Z,3.60
2022-08-20T10:11:41.499Z,3.38
2022-08-20T10:14:10.560Z,3.50
2022-08-20T10:16:41.053Z,2.72
2022-08-20T10:19:09.821Z,3.20
2022-08-20T10:21:39.264Z,3.30
2022-08-20T10:24:09.873Z,3.25
2022-08-20T10:26:40.686Z,2.92
2022-08-20T10:29:09.701Z,3.08
2022-08-20T10:31:38.973Z,3.35
2022-08-20T10:34:08.670Z,3.55
2022-08-20T10:36:37.100Z,2.90
2022-08-20T10:39:09.291Z,3.00
2022-08-20T10:41:39.171Z,3.10
2022-08-20T10:44:09.553Z,2.75
2022-08-20T10:46:39.180Z,2.97
2022-08-20T10:49:07.849Z,2.97
2022-08-20T10:51:36.329Z,2.75
2022-08-20T10:54:08.181Z,3.25
2022-08-20T10:56:49.845Z,3.25
2022-08-20T10:59:19.987Z,3.35
2022-08-20T11:01:48.798Z,3.10
2022-08-20T11:04:17.832Z,2.85
2022-08-20T11:06:46.262Z,2.90
2022-08-20T11:09:26.041Z,3.20
2022-08-20T11:11:57.370Z,3.10
2022-08-20T11:14:28.264Z,3.10
2022-08-20T11:16:57.777Z,2.97
2022-08-20T11:19:26.348Z,3.03
2022-08-20T11:21:55.953Z,2.65
2022-08-20T11:24:24.762Z,2.70
2022-08-20T11:26:55.474Z,2.70
2022-08-20T11:29:25.408Z,2.70
2022-08-20T11:31:53.951Z,2.70
2022-08-20T11:34:28.534Z,2.75
2022-08-20T11:36:59.348Z,2.75
2022-08-20T11:39:28.687Z,2.90
2022-08-20T11:41:58.394Z,2.70
2022-08-20T11:44:28.449Z,2.38
2022-08-20T11:47:00.064Z,2.60
2022-08-20T11:49:29.899Z,3.00
2022-08-20T11:52:00.374Z,3.22
2022-08-20T11:54:30.369Z,2.47
2022-08-20T11:56:59.926Z,2.50
2022-08-20T11:59:30.059Z,2.85
2022-08-20T12:02:02.464Z,3.05
2022-08-20T12:04:33.445Z,2.60
2022-08-20T12:07:15.933Z,2.63
2022-08-20T12:09:50.792Z,2.72
2022-08-20T12:12:22.394Z,2.40
2022-08-20T12:14:55.406Z,2.92
2022-08-20T12:17:26.975Z,2.67
2022-08-20T12:19:58.427Z,3.00
2022-08-20T12:22:27.321Z,2.63
2022-08-20T12:24:57.043Z,2.58
2022-08-20T12:27:27.721Z,2.30
2022-08-20T12:30:01.257Z,2.60
2022-08-20T12:32:31.489Z,2.80
2022-08-20T12:35:01.641Z,2.80
2022-08-20T12:37:32.981Z,2.40
2022-08-20T12:40:05.199Z,2.40
2022-08-20T12:42:34.998Z,2.50
2022-08-20T12:45:05.748Z,2.90
2022-08-20T12:47:36.154Z,2.80
2022-08-20T12:50:07.980Z,2.60
2022-08-20T12:52:36.577Z,2.60
2022-08-20T12:55:07.546Z,2.22
2022-08-20T12:57:39.163Z,2.40
2022-08-20T13:00:14.026Z,2.88
2022-08-20T13:02:42.713Z,2.58
2022-08-20T13:05:13.903Z,2.97
2022-08-20T13:07:44.156Z,2.53
2022-08-20T13:10:20.974Z,2.47
2022-08-20T13:12:50.264Z,2.50
2022-08-20T13:15:21.308Z,2.80
2022-08-20T13:17:53.390Z,2.78
2022-08-20T13:20:26.048Z,3.00
2022-08-20T13:23:00.194Z,2.38
2022-08-20T13:25:28.732Z,2.40
2022-08-20T13:27:59.594Z,2.72
2022-08-20T13:30:29.725Z,2.50
2022-08-20T13:32:59.190Z,2.60
2022-08-20T13:35:28.532Z,2.30
2022-08-20T13:37:57.146Z,2.20
2022-08-20T13:40:26.358Z,2.55
2022-08-20T13:42:56.332Z,2.67
2022-08-20T13:45:25.459Z,2.30
2022-08-20T13:47:57.247Z,2.47
2022-08-20T13:50:27.343Z,2.80
2022-08-20T13:52:56.860Z,2.53
2022-08-20T13:55:31.920Z,2.58
2022-08-20T13:58:07.965Z,2.20
2022-08-20T14:00:37.869Z,2.70
2022-08-20T14:03:09.323Z,2.70
2022-08-20T14:05:40.961Z,2.47
2022-08-20T14:08:14.694Z,2.60
2022-08-20T14:10:44.599Z,2.80
2022-08-20T14:13:28.867Z,2.42
2022-08-20T14:15:59.118Z,2.78
2022-08-20T14:18:31.066Z,2.70
2022-08-20T14:20:59.751Z,2.55
2022-08-20T14:23:28.797Z,2.80
2022-08-20T14:25:59.312Z,2.25
2022-08-20T14:28:29.195Z,2.55
2022-08-20T14:30:57.706Z,2.35
2022-08-20T14:33:26.880Z,2.40
2022-08-20T14:36:03.082Z,2.50
2022-08-20T14:38:32.855Z,3.22
2022-08-20T14:41:02.573Z,2.53
2022-08-20T14:43:31.105Z,2.50
2022-08-20T14:45:59.653Z,2.50
2022-08-20T14:48:28.599Z,2.85
2022-08-20T14:50:57.220Z,2.45
2022-08-20T14:53:27.896Z,2.47
2022-08-20T14:55:56.453Z,2.53
2022-08-20T14:58:25.170Z,2.75
2022-08-20T15:00:55.161Z,2.58
2022-08-20T15:03:26.268Z,2.60
2022-08-20T15:05:55.189Z,2.72
2022-08-20T15:08:28.348Z,2.85
2022-08-20T15:11:07.807Z,3.08
2022-08-20T15:13:36.404Z,2.58
2022-08-20T15:16:05.488Z,2.60
2022-08-20T15:18:34.745Z,2.50
2022-08-20T15:21:03.078Z,2.60
2022-08-20T15:23:31.465Z,2.70
2022-08-20T15:26:00.860Z,2.67
2022-08-20T15:28:31.461Z,2.92
2022-08-20T15:31:00.143Z,2.47
2022-08-20T15:33:30.788Z,2.72
2022-08-20T15:35:59.556Z,2.40
2022-08-20T15:38:28.812Z,2.88
2022-08-20T15:40:57.408Z,2.78
2022-08-20T15:43:25.929Z,2.70
2022-08-20T15:45:56.214Z,2.63
2022-08-20T15:48:34.089Z,2.70
2022-08-20T15:51:19.936Z,2.90
2022-08-20T15:53:56.881Z,2.50
2022-08-20T15:56:48.042Z,2.30
2022-08-20T15:59:32.467Z,2.35
2022-08-20T16:02:14.422Z,2.00
2022-08-20T16:05:10.098Z,2.28
2022-08-20T16:07:50.603Z,2.55
2022-08-20T16:10:24.206Z,2.38
2022-08-20T16:12:58.860Z,2.47
2022-08-20T16:15:31.785Z,2.63
2022-08-20T16:18:09.304Z,2.85
2022-08-20T16:20:44.420Z,2.80
2022-08-20T16:23:18.573Z,2.70
2022-08-20T16:26:01.292Z,2.60
2022-08-20T16:28:38.356Z,2.47
2022-08-20T16:31:13.869Z,2.55
2022-08-20T16:33:53.410Z,2.58
2022-08-20T16:36:31.286Z,2.55
2022-08-20T16:39:05.635Z,2.92
2022-08-20T16:41:40.016Z,2.70
2022-08-20T16:44:16.916Z,3.15
2022-08-20T16:46:53.910Z,3.33
2022-08-20T16:49:28.714Z,2.58
2022-08-20T16:51:57.560Z,2.88
2022-08-20T16:54:31.464Z,2.72
2022-08-20T16:57:02.838Z,2.40
2022-08-20T16:59:31.234Z,2.65
2022-08-20T17:02:07.374Z,2.20
2022-08-20T17:04:58.476Z,2.45
2022-08-20T17:07:33.546Z,2.30
2022-08-20T17:10:17.350Z,2.50
2022-08-20T17:12:45.919Z,2.65
2022-08-20T17:15:24.047Z,2.30
2022-08-20T17:17:56.082Z,2.20
2022-08-20T17:20:29.234Z,2.47
2022-08-20T17:23:14.895Z,2.33
2022-08-20T17:25:43.729Z,2.55
2022-08-20T17:28:17.111Z,2.30
2022-08-20T17:30:47.525Z,2.10
2022-08-20T17:33:25.649Z,1.95
2022-08-20T17:36:00.789Z,2.13
2022-08-20T17:38:38.541Z,2.20
2022-08-20T17:41:17.121Z,2.00
2022-08-20T17:43:47.156Z,2.40
2022-08-20T17:46:18.016Z,2.20
2022-08-20T17:48:48.936Z,2.03
2022-08-20T17:51:21.542Z,2.10
2022-08-20T17:53:53.944Z,1.45
2022-08-20T17:56:25.708Z,2.13
2022-08-20T17:59:03.455Z,1.92
2022-08-20T18:01:35.715Z,2.08
2022-08-20T18:04:04.762Z,2.10
2022-08-20T18:06:43.592Z,1.77
2022-08-20T18:09:18.491Z,1.80
2022-08-20T18:11:54.063Z,1.85
2022-08-20T18:14:43.717Z,1.80
2022-08-20T18:17:19.937Z,2.00
2022-08-20T18:20:11.560Z,2.10
2022-08-20T18:22:49.852Z,2.00
2022-08-20T18:25:31.904Z,1.50
2022-08-20T18:28:10.319Z,1.70
2022-08-20T18:30:50.208Z,1.70
2022-08-20T18:33:30.228Z,1.65
2022-08-20T18:36:11.738Z,2.10
2022-08-20T18:38:43.605Z,1.80
2022-08-20T18:41:16.940Z,1.85
2022-08-20T18:44:03.621Z,1.80
2022-08-20T18:46:54.753Z,1.45
2022-08-20T18:49:30.562Z,1.77
2022-08-20T18:52:00.409Z,1.80
2022-08-20T18:54:33.393Z,1.92
2022-08-20T18:57:09.956Z,1.98
2022-08-20T18:59:49.647Z,2.00
2022-08-20T19:02:23.800Z,2.20
2022-08-20T19:05:02.177Z,2.05
2022-08-20T19:07:48.667Z,1.98
2022-08-20T19:10:48.069Z,2.38
2022-08-20T19:13:43.064Z,2.30
2022-08-20T19:16:20.780Z,2.33
2022-08-20T19:18:53.565Z,2.70
2022-08-20T19:21:27.271Z,2.28
2022-08-20T19:24:00.640Z,2.30
2022-08-20T19:26:41.219Z,2.38
2022-08-20T19:29:12.135Z,2.15
2022-08-20T19:31:41.489Z,2.00
2022-08-20T19:34:20.137Z,2.05
2022-08-20T19:36:58.199Z,2.40
2022-08-20T19:39:28.490Z,2.47
2022-08-20T19:42:19.017Z,2.28
2022-08-20T19:44:59.617Z,2.40
2022-08-20T19:47:33.641Z,2.30
2022-08-20T19:50:17.029Z,2.30
2022-08-20T19:53:08.727Z,2.35
2022-08-20T19:55:44.050Z,2.50
2022-08-20T19:58:26.156Z,2.38
2022-08-20T20:00:56.985Z,2.67
2022-08-20T20:03:27.274Z,2.30
2022-08-20T20:05:59.673Z,2.58
2022-08-20T20:08:38.261Z,2.35
2022-08-20T20:11:08.036Z,2.20
2022-08-20T20:13:39.621Z,2.30
2022-08-20T20:16:09.364Z,2.30
2022-08-20T20:18:41.823Z,2.05
2022-08-20T20:21:16.595Z,2.35
2022-08-20T20:23:55.093Z,1.90
2022-08-20T20:26:24.374Z,2.00
2022-08-20T20:29:02.567Z,1.85
2022-08-20T20:31:46.429Z,1.95
2022-08-20T20:34:26.823Z,2.17
2022-08-20T20:37:09.286Z,2.05
2022-08-20T20:39:41.851Z,2.08
2022-08-20T20:42:14.088Z,1.90
2022-08-20T20:44:46.484Z,1.95
2022-08-20T20:47:23.228Z,1.83
2022-08-20T20:49:56.016Z,2.00
2022-08-20T20:52:29.243Z,1.92
2022-08-20T20:55:13.694Z,1.95
2022-08-20T20:57:42.614Z,1.90
2022-08-20T21:00:17.226Z,1.85
2022-08-20T21:02:46.705Z,2.10
2022-08-20T21:05:19.456Z,1.90
2022-08-20T21:07:51.217Z,2.28
2022-08-20T21:10:22.338Z,1.90
2022-08-20T21:12:53.206Z,2.00
2022-08-20T21:15:26.485Z,2.13
2022-08-20T21:17:59.413Z,2.45
2022-08-20T21:20:27.971Z,2.17
2022-08-20T21:22:58.826Z,1.90
2022-08-20T21:25:28.772Z,1.85
2022-08-20T21:27:58.754Z,2.25
2022-08-20T21:30:30.160Z,2.15
2022-08-20T21:32:59.219Z,2.00
2022-08-20T21:35:28.692Z,2.00
2022-08-20T21:37:57.280Z,2.08
2022-08-20T21:40:28.349Z,2.10
2022-08-20T21:42:58.026Z,2.20
2022-08-20T21:45:56.946Z,1.88
2022-08-20T21:51:33.818Z,1.90
2022-08-20T21:54:15.106Z,2.10
2022-08-20T21:56:50.293Z,2.30
2022-08-20T21:59:21.725Z,2.40
2022-08-20T22:01:52.192Z,2.22
2022-08-20T22:04:21.398Z,2.38
2022-08-20T22:06:51.576Z,2.20
2022-08-20T22:09:20.576Z,2.47
2022-08-20T22:11:54.272Z,2.10
2022-08-20T22:14:24.741Z,2.70
2022-08-20T22:16:55.570Z,2.30
2022-08-20T22:19:24.260Z,2.53
2022-08-20T22:21:54.426Z,2.63
2022-08-20T22:24:24.323Z,2.30
2022-08-20T22:26:52.929Z,2.70
2022-08-20T22:29:28.201Z,2.30
2022-08-20T22:31:57.926Z,2.30
2022-08-20T22:34:28.043Z,2.60
2022-08-20T22:36:59.991Z,2.38
2022-08-20T22:39:29.315Z,2.38
2022-08-20T22:41:58.031Z,2.17
2022-08-20T22:44:26.657Z,2.50
2022-08-20T22:47:01.520Z,2.10
2022-08-20T22:49:33.772Z,2.65
2022-08-20T22:52:03.355Z,2.00
2022-08-20T22:54:31.803Z,2.40
2022-08-20T22:57:00.474Z,2.10
2022-08-20T22:59:29.526Z,2.30
2022-08-20T23:02:15.307Z,2.20
2022-08-20T23:04:46.946Z,2.20
2022-08-20T23:07:16.645Z,2.50
2022-08-20T23:09:46.032Z,2.58
2022-08-20T23:12:14.609Z,2.80
2022-08-20T23:14:44.231Z,2.10
2022-08-20T23:17:19.296Z,2.10
2022-08-20T23:19:49.276Z,2.72
2022-08-20T23:22:18.686Z,2.10
2022-08-20T23:24:51.420Z,3.03
2022-08-20T23:27:22.450Z,2.78
2022-08-20T23:29:51.121Z,2.15
2022-08-20T23:32:21.155Z,3.10
2022-08-20T23:34:49.548Z,2.25
2022-08-20T23:37:22.102Z,2.33
2022-08-20T23:39:51.311Z,2.60
2022-08-20T23:42:20.077Z,2.30
2022-08-20T23:44:48.572Z,2.97
2022-08-20T23:47:23.186Z,2.53
2022-08-20T23:49:52.097Z,2.80
2022-08-20T23:52:20.755Z,2.30
2022-08-20T23:54:49.311Z,2.30
2022-08-20T23:57:20.855Z,2.53
2022-08-20T23:59:49.751Z,2.47
